createdAt,value
2019-03-13T00:00:32.960Z,390
2019-03-13T00:01:40.179Z,391
2019-03-13T00:02:47.108Z,390
2019-03-13T00:03:54.312Z,391
2019-03-13T00:05:01.518Z,390
2019-03-13T00:06:08.454Z,390
2019-03-13T00:07:15.391Z,390
2019-03-13T00:08:22.322Z,395
2019-03-13T00:09:29.548Z,401
2019-03-13T00:10:36.756Z,403
2019-03-13T00:11:43.701Z,403
2019-03-13T00:12:50.906Z,403
2019-03-13T00:13:58.115Z,402
2019-03-13T00:15:05.316Z,401
2019-03-13T00:16:12.548Z,402
2019-03-13T00:17:19.743Z,404
2019-03-13T00:18:41.616Z,402
2019-03-13T00:19:48.558Z,405
2019-03-13T00:20:55.773Z,409
2019-03-13T00:22:02.989Z,411
2019-03-13T00:23:10.206Z,410
2019-03-13T00:24:17.419Z,409
2019-03-13T00:25:24.644Z,409
2019-03-13T00:26:31.848Z,407
2019-03-13T00:27:39.092Z,405
2019-03-13T00:28:46.301Z,404
2019-03-13T00:29:53.507Z,407
2019-03-13T00:31:00.717Z,405
2019-03-13T00:32:07.643Z,404
2019-03-13T00:33:14.906Z,401
2019-03-13T00:34:21.850Z,400
2019-03-13T00:35:29.072Z,399
2019-03-13T00:36:36.274Z,399
2019-03-13T00:37:42.984Z,399
2019-03-13T00:38:50.187Z,399
2019-03-13T00:39:57.393Z,398
2019-03-13T00:41:04.592Z,400
2019-03-13T00:42:11.808Z,400
2019-03-13T00:43:19.019Z,400
2019-03-13T00:44:26.213Z,401
2019-03-13T00:45:33.144Z,402
2019-03-13T00:46:40.347Z,402
2019-03-13T00:47:47.957Z,401
2019-03-13T00:48:54.913Z,399
2019-03-13T00:50:01.561Z,398
2019-03-13T00:51:08.771Z,398
2019-03-13T00:52:15.989Z,397
2019-03-13T00:53:23.206Z,395
2019-03-13T00:54:30.412Z,395
2019-03-13T00:55:37.624Z,399
2019-03-13T00:56:44.827Z,404
2019-03-13T00:57:51.481Z,402
2019-03-13T00:58:58.684Z,398
2019-03-13T01:00:05.893Z,403
2019-03-13T01:01:13.110Z,401
2019-03-13T01:02:20.310Z,400
2019-03-13T01:03:27.531Z,400
2019-03-13T01:04:34.192Z,404
2019-03-13T01:05:41.407Z,406
2019-03-13T01:06:48.612Z,404
2019-03-13T01:07:55.817Z,405
2019-03-13T01:09:03.018Z,405
2019-03-13T01:10:09.920Z,407
2019-03-13T01:11:17.144Z,407
2019-03-13T01:12:23.815Z,409
2019-03-13T01:13:31.023Z,408
2019-03-13T01:14:37.982Z,404
2019-03-13T01:15:45.187Z,409
2019-03-13T01:16:52.395Z,412
2019-03-13T01:17:59.322Z,414
2019-03-13T01:19:06.535Z,413
2019-03-13T01:20:13.741Z,415
2019-03-13T01:21:20.953Z,413
2019-03-13T01:22:28.158Z,410
2019-03-13T01:23:35.366Z,411
2019-03-13T01:24:42.582Z,411
2019-03-13T01:25:49.514Z,412
2019-03-13T01:26:56.721Z,413
2019-03-13T01:28:03.649Z,414
2019-03-13T01:29:10.576Z,418
2019-03-13T01:30:17.785Z,419
2019-03-13T01:31:24.994Z,420
2019-03-13T01:32:31.931Z,421
2019-03-13T01:33:39.150Z,420
2019-03-13T01:34:46.354Z,418
2019-03-13T01:35:53.566Z,414
2019-03-13T01:37:00.587Z,413
2019-03-13T01:38:07.770Z,412
2019-03-13T01:39:14.704Z,411
2019-03-13T01:40:21.912Z,413
2019-03-13T01:41:29.121Z,414
2019-03-13T01:42:36.320Z,415
2019-03-13T01:43:43.534Z,413
2019-03-13T01:44:50.777Z,419
2019-03-13T01:45:57.983Z,419
2019-03-13T01:47:05.258Z,420
2019-03-13T01:48:12.465Z,420
2019-03-13T01:49:19.903Z,419
2019-03-13T01:50:27.107Z,419
2019-03-13T01:51:34.328Z,418
2019-03-13T01:52:41.538Z,417
2019-03-13T01:53:48.739Z,417
2019-03-13T01:54:55.945Z,415
2019-03-13T01:56:02.628Z,412
2019-03-13T01:57:09.563Z,412
2019-03-13T01:58:16.762Z,411
2019-03-13T01:59:23.971Z,411
2019-03-13T02:00:31.177Z,410
2019-03-13T02:01:38.452Z,409
2019-03-13T02:02:45.427Z,404
2019-03-13T02:03:52.629Z,401
2019-03-13T02:05:00.072Z,398
2019-03-13T02:06:07.279Z,397
2019-03-13T02:07:14.508Z,396
2019-03-13T02:08:21.445Z,397
2019-03-13T02:09:28.738Z,396
2019-03-13T02:10:35.673Z,397
2019-03-13T02:11:42.880Z,396
2019-03-13T02:12:50.336Z,397
2019-03-13T02:13:57.503Z,397
2019-03-13T02:15:04.711Z,397
2019-03-13T02:16:11.600Z,397
2019-03-13T02:17:18.812Z,396
2019-03-13T02:18:25.755Z,397
2019-03-13T02:19:32.695Z,397
2019-03-13T02:20:39.928Z,396
2019-03-13T02:21:46.871Z,397
2019-03-13T02:22:54.113Z,397
2019-03-13T02:24:01.328Z,396
2019-03-13T02:25:08.489Z,397
2019-03-13T02:26:15.423Z,397
2019-03-13T02:27:22.872Z,397
2019-03-13T02:28:29.802Z,398
2019-03-13T02:29:37.017Z,397
2019-03-13T02:30:44.380Z,396
2019-03-13T02:31:50.818Z,397
2019-03-13T02:32:58.030Z,400
2019-03-13T02:34:05.000Z,399
2019-03-13T02:35:12.209Z,399
2019-03-13T02:36:19.441Z,398
2019-03-13T02:37:26.372Z,399
2019-03-13T02:38:33.603Z,399
2019-03-13T02:39:40.813Z,399
2019-03-13T02:40:48.058Z,398
2019-03-13T02:41:55.886Z,398
2019-03-13T02:43:03.373Z,399
2019-03-13T02:44:10.610Z,399
2019-03-13T02:45:17.284Z,398
2019-03-13T02:46:24.482Z,397
2019-03-13T02:47:31.686Z,398
2019-03-13T02:48:38.884Z,398
2019-03-13T02:49:45.815Z,399
2019-03-13T02:50:53.023Z,400
2019-03-13T02:52:00.455Z,400
2019-03-13T02:53:07.386Z,402
2019-03-13T02:54:14.825Z,398
2019-03-13T02:55:22.046Z,400
2019-03-13T02:56:29.293Z,399
2019-03-13T02:57:36.534Z,399
2019-03-13T02:58:43.737Z,399
2019-03-13T02:59:50.964Z,399
2019-03-13T03:00:58.181Z,397
2019-03-13T03:02:05.413Z,398
2019-03-13T03:03:12.603Z,399
2019-03-13T03:04:19.530Z,400
2019-03-13T03:05:26.977Z,398
2019-03-13T03:06:34.176Z,397
2019-03-13T03:07:41.123Z,398
2019-03-13T03:08:48.076Z,400
2019-03-13T03:09:55.306Z,399
2019-03-13T03:11:02.538Z,399
2019-03-13T03:12:09.760Z,399
2019-03-13T03:13:16.973Z,399
2019-03-13T03:14:24.256Z,398
2019-03-13T03:15:31.452Z,398
2019-03-13T03:16:38.676Z,399
2019-03-13T03:17:45.893Z,399
2019-03-13T03:18:53.331Z,399
2019-03-13T03:20:00.585Z,399
2019-03-13T03:21:07.840Z,399
2019-03-13T03:22:15.072Z,399
2019-03-13T03:23:22.249Z,399
2019-03-13T03:24:29.477Z,398
2019-03-13T23:00:06.720Z,423
2019-03-13T23:01:13.923Z,418
2019-03-13T23:02:21.130Z,419
2019-03-13T23:03:28.342Z,417
2019-03-13T23:04:37.134Z,417
2019-03-13T23:05:44.353Z,417
2019-03-13T23:06:51.563Z,416
2019-03-13T23:07:58.522Z,416
2019-03-13T23:09:05.483Z,416
2019-03-13T23:10:12.720Z,417
2019-03-13T23:11:19.685Z,416
2019-03-13T23:12:26.905Z,416
2019-03-13T23:13:37.060Z,416
2019-03-13T23:14:44.262Z,416
2019-03-13T23:15:51.475Z,416
2019-03-13T23:16:58.416Z,415
2019-03-13T23:18:05.356Z,417
2019-03-13T23:19:12.296Z,416
2019-03-13T23:20:19.497Z,416
2019-03-13T23:21:26.426Z,415
2019-03-13T23:22:33.631Z,416
2019-03-13T23:23:40.841Z,415
2019-03-13T23:24:48.047Z,416
2019-03-13T23:25:54.991Z,416
2019-03-13T23:27:02.189Z,416
2019-03-13T23:28:09.404Z,415
2019-03-13T23:29:16.054Z,415
2019-03-13T23:30:23.050Z,415
2019-03-13T23:31:30.260Z,415
2019-03-13T23:32:37.568Z,415
2019-03-13T23:33:44.776Z,415
2019-03-13T23:34:51.977Z,415
2019-03-13T23:35:59.181Z,413
2019-03-13T23:37:06.123Z,414
2019-03-13T23:38:13.334Z,414
2019-03-13T23:39:20.548Z,417
2019-03-13T23:40:27.757Z,417
2019-03-13T23:41:34.972Z,417
2019-03-13T23:42:42.184Z,418
2019-03-13T23:43:49.490Z,417
2019-03-13T23:44:56.431Z,418
2019-03-13T23:46:03.624Z,418
2019-03-13T23:47:10.559Z,417
2019-03-13T23:48:18.005Z,417
2019-03-13T23:49:25.209Z,417
2019-03-13T23:50:32.141Z,416
2019-03-13T23:51:39.351Z,417
2019-03-13T23:52:46.278Z,416
2019-03-13T23:53:53.483Z,417
2019-03-13T23:55:00.436Z,416
2019-03-13T23:56:07.636Z,416
2019-03-13T23:57:14.588Z,416
2019-03-13T23:58:21.811Z,416
2019-03-13T23:59:29.031Z,415
